Time;durP1;ratioP1;P1;durP2;ratioP2;P2;SDS_P1;SDS_P2;PMS_P1;PMS_P2;Temp;Humidity;BMP_temperature;BMP_pressure;BME280_temperature;BME280_humidity;BME280_pressure;Samples;Min_cycle;Max_cycle;Signal;HPM_P1;HPM_P2
2022/09/24 00:02:24;;;;;;;29.25;16.52;;;;;;;5.44;84.63;98048.34;10290406;28;20109;-62
2022/09/24 00:07:23;;;;;;;;;;;;;;;5.41;84.70;98053.41;10290941;28;20069;-62
2022/09/24 00:12:22;;;;;;;16.92;11.77;;;;;;;5.29;84.36;98037.69;10289591;28;19909;-63
2022/09/24 00:17:21;;;;;;;14.65;11.02;;;;;;;5.31;84.50;98049.75;10290444;28;20022;-63
2022/09/24 00:22:20;;;;;;;14.23;10.02;;;;;;;5.24;84.48;98035.00;10290330;28;20153;-62
2022/09/24 00:27:19;;;;;;;14.82;10.95;;;;;;;5.21;84.51;98046.94;10290076;28;20045;-62
2022/09/24 00:32:17;;;;;;;16.92;11.45;;;;;;;4.57;84.55;97944.16;10297708;28;20041;-63
2022/09/24 00:37:18;;;;;;;18.08;12.48;;;;;;;5.09;84.80;98042.34;10297377;28;20029;-63
2022/09/24 00:42:20;;;;;;;18.58;12.38;;;;;;;4.99;86.14;98051.50;10297144;28;20065;-63
2022/09/24 00:47:43;;;;;;;17.50;11.35;;;;;;;4.97;85.86;98042.00;10296908;28;20072;-62
2022/09/24 00:52:49;;;;;;;16.27;9.93;;;;;;;4.95;85.97;98036.84;10293863;28;20477;-63
2022/09/24 00:57:49;;;;;;;17.60;11.15;;;;;;;4.93;86.06;98033.34;10295836;28;20065;-62
2022/09/24 01:02:53;;;;;;;16.00;11.63;;;;;;;4.82;86.25;98024.47;10296168;28;20141;-62
2022/09/24 01:07:53;;;;;;;18.52;11.70;;;;;;;4.70;86.33;98005.31;10310876;28;20078;-62
2022/09/24 01:13:05;;;;;;;17.83;11.45;;;;;;;4.83;86.16;98026.19;10295738;28;20464;-62
2022/09/24 01:18:37;;;;;;;18.00;11.68;;;;;;;4.81;86.21;98027.88;10295891;28;20063;-63
2022/09/24 01:23:54;;;;;;;19.17;12.65;;;;;;;4.80;86.51;98016.69;10295759;28;20072;-62
2022/09/24 01:29:04;;;;;;;20.33;12.73;;;;;;;4.60;86.51;97981.91;10295119;28;20062;-62
2022/09/24 01:34:05;;;;;;;18.77;13.45;;;;;;;4.59;86.29;97990.44;10293667;28;20427;-63
2022/09/24 01:39:07;;;;;;;22.83;15.30;;;;;;;4.65;86.13;98019.75;10295301;28;20068;-63
2022/09/24 01:44:06;;;;;;;23.92;15.27;;;;;;;4.60;86.53;98016.19;10294999;28;20065;-62
2022/09/24 01:49:06;;;;;;;27.85;16.75;;;;;;;4.48;86.71;98021.00;10294317;28;20061;-63
2022/09/24 01:54:21;;;;;;;19.58;13.98;;;;;;;4.17;86.74;97997.00;10294194;28;20480;-62
2022/09/24 01:59:26;;;;;;;21.33;12.40;;;;;;;4.32;86.60;98031.69;10293874;28;20068;-62
2022/09/24 02:04:29;;;;;;;19.13;12.30;;;;;;;4.25;86.58;98031.50;10294108;28;20505;-62
2022/09/24 02:09:28;;;;;;;20.23;12.27;;;;;;;4.21;86.28;98042.50;10293340;28;20532;-63
2022/09/24 02:14:30;;;;;;;19.92;13.32;;;;;;;4.11;86.37;98037.09;10293681;28;20064;-63
2022/09/24 02:19:34;;;;;;;17.20;11.50;;;;;;;4.09;86.60;98044.75;10293359;28;20068;-63
2022/09/24 02:24:37;;;;;;;17.67;11.65;;;;;;;4.00;86.22;98044.47;10292072;28;20069;-62
2022/09/24 02:29:36;;;;;;;17.10;10.82;;;;;;;3.73;87.13;98047.06;10291768;28;20100;-62
2022/09/24 02:34:40;;;;;;;17.30;11.57;;;;;;;3.48;87.17;98037.75;10292789;28;20057;-62
2022/09/24 02:39:40;;;;;;;22.92;12.25;;;;;;;2.90;87.38;97958.13;10292778;28;20061;-62
2022/09/24 02:44:39;;;;;;;16.45;11.55;;;;;;;3.21;87.95;98026.69;10292542;28;20061;-63
2022/09/24 02:49:38;;;;;;;18.30;11.38;;;;;;;3.31;88.06;98057.72;10292307;28;20069;-63
2022/09/24 02:54:37;;;;;;;17.60;11.30;;;;;;;3.23;88.01;98047.22;10290192;28;20066;-63
2022/09/24 02:59:36;;;;;;;16.55;11.90;;;;;;;3.29;87.67;98060.25;10294153;28;20033;-63
2022/09/24 03:04:35;;;;;;;18.88;11.38;;;;;;;3.28;87.94;98062.75;10310559;28;20061;-63
2022/09/24 03:09:34;;;;;;;21.42;12.27;;;;;;;3.29;87.54;98057.69;10293600;28;20534;-63
2022/09/24 03:14:33;;;;;;;18.13;12.13;;;;;;;3.11;87.88;98036.56;10295168;28;20034;-63
2022/09/24 03:19:32;;;;;;;22.27;13.48;;;;;;;3.08;88.18;98028.78;10295644;28;20068;-63
2022/09/24 03:24:31;;;;;;;20.02;13.15;;;;;;;3.13;87.69;98043.50;10294762;28;20040;-63
2022/09/24 03:34:47;;;;;;;26.02;16.50;;;;;;;3.02;88.22;98058.50;10294489;28;20065;-62
2022/09/24 03:39:46;;;;;;;24.85;14.63;;;;;;;2.96;88.39;98053.19;10294679;28;20131;-63
2022/09/24 03:44:45;;;;;;;25.50;12.85;;;;;;;2.99;88.96;98068.66;10294540;28;20108;-63
2022/09/24 03:49:44;;;;;;;21.00;13.80;;;;;;;3.06;88.90;98082.56;10309244;28;20073;-63
2022/09/24 03:54:43;;;;;;;22.33;13.07;;;;;;;3.01;88.50;98081.53;10294314;28;20061;-63
2022/09/24 03:59:43;;;;;;;23.17;15.07;;;;;;;3.00;88.73;98090.03;10292043;28;20030;-63
2022/09/24 04:04:42;;;;;;;27.13;16.60;;;;;;;2.90;88.88;98088.00;10294099;28;20061;-62
2022/09/24 04:09:41;;;;;;;27.08;16.17;;;;;;;2.89;88.87;98081.13;10298148;28;20477;-62
2022/09/24 04:14:40;;;;;;;41.35;18.73;;;;;;;2.69;89.35;98047.13;10298205;28;20141;-63
2022/09/24 04:19:39;;;;;;;33.28;20.48;;;;;;;2.81;89.19;98079.16;10297359;28;20061;-63
2022/09/24 04:24:38;;;;;;;29.60;19.98;;;;;;;2.87;89.28;98095.59;10298042;28;20516;-63
2022/09/24 04:29:37;;;;;;;44.17;27.05;;;;;;;2.92;89.06;98096.59;10296623;28;20501;-62
2022/09/24 04:34:36;;;;;;;46.53;28.13;;;;;;;2.90;88.88;98098.25;10297530;28;20128;-63
2022/09/24 04:39:35;;;;;;;40.53;25.90;;;;;;;2.82;88.91;98069.78;10297331;28;20064;-63
2022/09/24 04:44:34;;;;;;;34.78;23.92;;;;;;;2.96;88.47;98083.09;10288121;28;20054;-63
2022/09/24 04:49:32;;;;;;;34.20;21.25;;;;;;;2.94;88.61;98071.91;10294435;28;20124;-62
2022/09/24 04:54:31;;;;;;;25.60;18.55;;;;;;;2.85;88.59;98062.19;10295378;28;20121;-62
2022/09/24 04:59:30;;;;;;;26.98;18.63;;;;;;;3.18;88.32;98100.91;10295047;28;20040;-62
2022/09/24 05:04:30;;;;;;;49.53;30.88;;;;;;;3.26;87.93;98106.31;10294753;28;20046;-62
2022/09/24 05:09:32;;;;;;;47.58;30.92;;;;;;;3.16;88.29;98099.13;10292149;28;20081;-63
2022/09/24 05:14:30;;;;;;;52.38;33.70;;;;;;;3.31;88.02;98120.16;10289341;28;20073;-62
2022/09/24 05:19:29;;;;;;;53.03;35.30;;;;;;;3.46;88.04;98117.22;10291523;28;20036;-63
2022/09/24 05:24:28;;;;;;;48.20;30.13;;;;;;;3.60;87.79;98109.97;10294726;28;20038;-63
2022/09/24 05:29:27;;;;;;;46.88;31.38;;;;;;;3.78;87.70;98113.13;10295048;28;20113;-63
2022/09/24 05:34:27;;;;;;;51.65;27.67;;;;;;;3.97;87.66;98111.16;10295145;28;20561;-63
2022/09/24 05:39:26;;;;;;;;;;;;;;;4.17;87.45;98117.72;10295495;28;20068;-63
2022/09/24 05:44:25;;;;;;;39.97;27.40;;;;;;;4.21;87.17;98093.88;10295412;28;19945;-62
2022/09/24 05:49:24;;;;;;;34.35;23.35;;;;;;;3.94;87.22;98034.91;10294306;28;20284;-62
2022/09/24 05:54:23;;;;;;;33.30;20.08;;;;;;;4.52;86.99;98111.91;10294298;28;20065;-63
2022/09/24 05:59:23;;;;;;;30.33;20.42;;;;;;;4.73;86.82;98120.22;10295333;28;20042;-63
2022/09/24 06:04:22;;;;;;;28.50;19.10;;;;;;;4.82;86.88;98102.47;10297447;28;20512;-63
2022/09/24 06:09:21;;;;;;;26.42;18.25;;;;;;;4.92;87.12;98103.56;10297175;28;20125;-63
2022/09/24 06:14:20;;;;;;;22.45;16.27;;;;;;;5.08;87.50;98100.63;10297091;28;20593;-63
2022/09/24 06:19:19;;;;;;;23.10;15.60;;;;;;;5.37;87.70;98121.09;10296903;28;20518;-63
2022/09/24 06:24:18;;;;;;;20.13;15.25;;;;;;;5.58;87.76;98117.28;10296805;28;20030;-63
2022/09/24 06:29:17;;;;;;;22.00;14.95;;;;;;;5.64;87.79;98114.88;10296190;28;20033;-63
2022/09/24 06:34:16;;;;;;;22.65;14.77;;;;;;;5.89;87.10;98119.78;10296187;28;20044;-63
2022/09/24 06:39:15;;;;;;;22.45;15.27;;;;;;;6.15;86.80;98134.97;10297268;28;20092;-63
2022/09/24 06:44:14;;;;;;;19.38;14.30;;;;;;;6.29;86.88;98131.00;10295837;28;20145;-63
2022/09/24 06:49:13;;;;;;;19.45;15.43;;;;;;;6.35;86.63;98120.81;10296119;28;20041;-63
2022/09/24 06:54:12;;;;;;;17.85;13.63;;;;;;;6.50;85.99;98122.84;10295647;28;20069;-63
2022/09/24 06:59:11;;;;;;;20.85;14.73;;;;;;;6.75;85.37;98129.38;10293087;28;20130;-61
2022/09/24 07:04:10;;;;;;;;;;;;;;;6.99;85.73;98122.97;10291858;28;20073;-62
2022/09/24 07:09:09;;;;;;;18.83;14.10;;;;;;;7.24;84.58;98121.69;10291640;28;20315;-63
2022/09/24 07:14:08;;;;;;;21.17;15.57;;;;;;;7.40;83.58;98113.41;10291854;28;20056;-63
2022/09/24 07:19:07;;;;;;;19.23;13.50;;;;;;;7.71;83.34;98128.53;10291801;28;20136;-63
2022/09/24 07:24:06;;;;;;;18.58;14.07;;;;;;;7.80;81.53;98097.69;10291205;28;20072;-62
2022/09/24 07:29:05;;;;;;;24.58;21.98;;;;;;;8.25;80.77;98113.03;10306355;28;20038;-63
2022/09/24 07:34:07;;;;;;;25.25;20.23;;;;;;;8.58;79.59;98108.28;10291140;28;20033;-63
2022/09/24 07:39:06;;;;;;;25.65;17.30;;;;;;;8.92;79.42;98094.88;10294431;28;20066;-63
2022/09/24 07:44:06;;;;;;;18.25;14.77;;;;;;;9.23;78.54;98077.09;10300018;28;20072;-63
2022/09/24 07:49:05;;;;;;;16.58;12.20;;;;;;;9.68;76.60;98096.50;10298842;28;20070;-63
2022/09/24 07:54:04;;;;;;;14.75;10.75;;;;;;;9.85;75.45;98077.63;10299636;28;20088;-63
2022/09/24 07:59:05;;;;;;;;;;;;;;;10.27;73.33;98096.91;10299522;28;20068;-64
2022/09/24 08:04:04;;;;;;;12.85;9.13;;;;;;;10.04;70.58;98006.88;10298953;28;19956;-63
2022/09/24 08:09:04;;;;;;;12.68;8.60;;;;;;;10.97;68.52;98091.19;10298684;28;20077;-63
2022/09/24 08:14:03;;;;;;;;;;;;;;;11.32;66.52;98088.66;10298975;28;20076;-63
2022/09/24 08:19:01;;;;;;;12.75;9.50;;;;;;;11.77;63.43;98084.31;10298479;28;20008;-63
2022/09/24 08:24:01;;;;;;;12.52;7.53;;;;;;;12.03;60.82;98049.63;10298397;28;20037;-63
2022/09/24 08:28:59;;;;;;;;;;;;;;;12.68;58.39;98064.19;10297690;28;20069;-63
2022/09/24 08:33:58;;;;;;;7.00;4.80;;;;;;;12.54;55.92;97987.91;10296670;28;19952;-63
2022/09/24 08:38:57;;;;;;;6.55;4.22;;;;;;;13.30;53.38;98056.00;10296927;28;20061;-65
2022/09/24 08:44:10;;;;;;;4.03;3.40;;;;;;;13.88;48.95;98052.09;10297231;28;20555;-63
2022/09/24 08:49:16;;;;;;;3.83;2.92;;;;;;;14.38;43.28;98058.53;10296599;28;20069;-63
2022/09/24 08:54:16;;;;;;;9.18;4.50;;;;;;;14.83;43.55;98051.91;10297137;28;20069;-63
2022/09/24 08:59:30;;;;;;;3.63;3.15;;;;;;;15.14;40.17;98053.25;10298054;28;20061;-63
2022/09/24 09:05:13;;;;;;;2.83;2.55;;;;;;;15.36;39.17;98051.16;10299846;28;20381;-62
2022/09/24 09:10:17;;;;;;;3.38;3.08;;;;;;;15.61;39.22;98052.50;10267064;28;20073;-63
2022/09/24 09:15:27;;;;;;;5.35;3.22;;;;;;;15.79;38.05;98042.66;10299408;28;20511;-62
2022/09/24 09:20:37;;;;;;;5.22;2.90;;;;;;;15.97;37.83;98037.06;10299218;28;20036;-63
2022/09/24 09:25:36;;;;;;;6.50;4.90;;;;;;;16.13;38.82;98040.28;10298936;28;20029;-64
2022/09/24 09:31:05;;;;;;;;;;;;;;;16.15;37.60;98035.03;10299662;28;20097;-64
2022/09/24 09:36:44;;;;;;;6.93;4.10;;;;;;;16.20;38.75;98035.78;10312904;28;19932;-64
2022/09/24 09:41:53;;;;;;;5.68;4.20;;;;;;;16.03;37.57;97997.72;10297276;28;20042;-64
2022/09/24 09:47:07;;;;;;;7.90;4.57;;;;;;;16.39;37.34;98020.59;10313296;28;20496;-62
2022/09/24 09:52:14;;;;;;;5.43;3.70;;;;;;;16.31;37.81;97976.22;10297792;28;20441;-62
2022/09/24 09:57:17;;;;;;;4.72;3.42;;;;;;;16.59;37.24;97986.13;10297686;28;20504;-62
2022/09/24 10:02:34;;;;;;;4.45;3.15;;;;;;;16.82;36.69;97994.38;10293611;28;20065;-62
2022/09/24 10:07:43;;;;;;;8.07;3.65;;;;;;;16.81;35.64;97981.31;10309133;28;20074;-62
2022/09/24 10:12:42;;;;;;;7.07;4.40;;;;;;;16.93;35.95;97968.78;10294207;28;20068;-62
2022/09/24 10:17:43;;;;;;;;;;;;;;;17.01;33.58;97962.50;10294435;28;20026;-62
2022/09/24 10:22:49;;;;;;;5.97;3.70;;;;;;;16.92;34.76;97938.22;10292374;28;20707;-62
2022/09/24 10:27:50;;;;;;;4.47;3.30;;;;;;;17.22;34.72;97948.88;10293372;28;20069;-62
2022/09/24 10:32:57;;;;;;;3.72;3.20;;;;;;;17.33;35.03;97941.59;10293617;28;20532;-63
2022/09/24 10:37:59;;;;;;;4.57;3.42;;;;;;;17.49;34.52;97934.19;10293183;28;20059;-62
2022/09/24 10:43:03;;;;;;;3.92;2.83;;;;;;;17.49;32.05;97928.94;10307648;28;20152;-62
2022/09/24 10:48:15;;;;;;;5.75;3.60;;;;;;;17.39;31.71;97903.00;10292401;28;20445;-62
2022/09/24 10:53:31;;;;;;;4.35;3.03;;;;;;;17.81;33.51;97923.78;10292870;28;20068;-62
2022/09/24 10:58:50;;;;;;;3.47;3.10;;;;;;;18.19;33.40;97947.19;10292197;28;20493;-62
2022/09/24 11:04:33;;;;;;;4.73;3.27;;;;;;;18.31;32.63;97934.59;10307660;28;20069;-62
2022/09/24 11:09:41;;;;;;;4.43;3.20;;;;;;;18.42;31.83;97932.53;10291551;28;20743;-62
2022/09/24 11:14:54;;;;;;;4.18;3.10;;;;;;;18.50;30.76;97943.69;10290995;28;20075;-63
2022/09/24 11:19:59;;;;;;;3.03;2.72;;;;;;;18.73;30.79;97952.66;10291727;28;20103;-64
2022/09/24 11:25:07;;;;;;;3.15;2.58;;;;;;;18.93;31.96;97942.38;10291791;28;20076;-63
2022/09/24 11:30:34;;;;;;;6.22;3.30;;;;;;;19.11;31.83;97937.44;10291781;28;20508;-63
2022/09/24 11:36:08;;;;;;;6.65;3.38;;;;;;;19.34;31.08;97934.06;10291188;28;20141;-63
2022/09/24 11:41:34;;;;;;;4.35;3.20;;;;;;;19.48;31.51;97908.13;10289884;28;20077;-63
2022/09/24 11:46:47;;;;;;;5.10;2.90;;;;;;;19.69;31.81;97913.59;10291119;28;20068;-63
2022/09/24 11:52:12;;;;;;;4.80;2.83;;;;;;;19.86;31.07;97909.47;10289181;28;20069;-63
2022/09/24 11:57:32;;;;;;;4.78;2.63;;;;;;;20.09;31.48;97897.19;10284671;28;20080;-64
2022/09/24 12:02:35;;;;;;;3.47;2.97;;;;;;;20.28;31.66;97895.63;10290461;28;20062;-64
2022/09/24 12:08:04;;;;;;;4.13;3.03;;;;;;;20.40;30.96;97896.97;10290420;28;20086;-63
2022/09/24 12:13:21;;;;;;;4.77;2.63;;;;;;;20.51;30.93;97872.78;10290992;28;20501;-64
2022/09/24 12:18:32;;;;;;;5.65;2.95;;;;;;;20.64;28.91;97875.81;10290401;28;20045;-64
2022/09/24 12:23:38;;;;;;;4.15;2.95;;;;;;;20.57;28.63;97896.28;10290720;28;20104;-64
2022/09/24 12:35:06;;;;;;;5.30;3.22;;;;;;;20.68;29.52;97895.84;10287478;28;20449;-64
2022/09/24 12:40:11;;;;;;;4.20;2.97;;;;;;;20.76;29.35;97891.16;10278245;28;20092;-64
2022/09/24 12:45:16;;;;;;;4.95;2.50;;;;;;;20.73;28.51;97879.84;10295774;28;20092;-64
2022/09/24 12:50:26;;;;;;;3.47;2.83;;;;;;;20.65;27.87;97881.03;10311051;28;20901;-64
2022/09/24 12:55:33;;;;;;;3.30;2.70;;;;;;;20.42;27.80;97857.34;10296700;28;20509;-64
2022/09/24 13:00:39;;;;;;;6.00;3.10;;;;;;;20.39;28.46;97853.03;10296202;28;20064;-64
2022/09/24 13:05:46;;;;;;;3.97;3.00;;;;;;;20.50;26.98;97871.09;10295475;28;20108;-64
2022/09/24 13:11:25;;;;;;;4.10;2.95;;;;;;;20.66;27.31;97863.44;10295660;28;20100;-64
2022/09/24 13:16:24;;;;;;;4.18;2.70;;;;;;;20.34;27.02;97848.84;10295008;28;20073;-64
2022/09/24 13:21:26;;;;;;;3.28;2.63;;;;;;;20.45;27.19;97867.78;10295199;28;20061;-64
2022/09/24 13:26:33;;;;;;;79.55;13.07;;;;;;;20.60;28.44;97845.22;10294576;28;20069;-64
2022/09/24 13:31:51;;;;;;;5.03;2.88;;;;;;;20.79;27.51;97867.28;10294165;28;20069;-64
2022/09/24 13:37:28;;;;;;;11.82;4.03;;;;;;;20.95;26.91;97859.59;10293024;28;20088;-64
2022/09/24 13:43:02;;;;;;;33.28;5.65;;;;;;;21.01;26.97;97848.81;10284369;28;20529;-64
2022/09/24 13:48:04;;;;;;;14.70;4.07;;;;;;;20.92;27.51;97828.09;10293586;28;20084;-64
2022/09/24 13:53:12;;;;;;;7.57;3.38;;;;;;;20.94;27.71;97828.88;10294590;28;20066;-64
2022/09/24 13:58:28;;;;;;;5.50;2.90;;;;;;;20.89;27.80;97836.09;10294415;28;20547;-64
2022/09/24 14:03:31;;;;;;;4.53;2.92;;;;;;;20.59;28.16;97802.19;10290477;28;20084;-64
2022/09/24 14:08:30;;;;;;;4.47;3.13;;;;;;;20.69;28.05;97829.88;10295091;28;20120;-64
2022/09/24 14:13:29;;;;;;;4.47;2.90;;;;;;;20.73;28.61;97817.44;10294980;28;20057;-64
2022/09/24 14:18:28;;;;;;;5.30;4.72;;;;;;;20.74;27.69;97829.69;10310319;28;20141;-64
2022/09/24 14:23:32;;;;;;;3.90;3.35;;;;;;;20.88;27.90;97823.84;10293099;28;20069;-64
2022/09/24 14:28:33;;;;;;;29.35;25.38;;;;;;;20.83;27.37;97837.22;10308702;28;20527;-64
2022/09/24 14:33:32;;;;;;;25.65;20.42;;;;;;;20.71;27.45;97828.03;10293985;28;20430;-64
2022/09/24 14:38:52;;;;;;;36.25;26.60;;;;;;;20.47;26.90;97823.78;10294355;28;20066;-65
2022/09/24 14:44:27;;;;;;;10.00;8.20;;;;;;;20.36;27.94;97823.31;10309312;28;20496;-64
2022/09/24 14:49:29;;;;;;;9.90;6.45;;;;;;;20.27;28.20;97814.81;10245346;28;20081;-64
2022/09/24 14:54:32;;;;;;;4.28;3.05;;;;;;;20.18;27.33;97823.09;10294990;28;20073;-64
2022/09/24 14:59:36;;;;;;;10.32;5.00;;;;;;;20.05;28.18;97800.78;10293221;28;20061;-66
2022/09/24 15:04:36;;;;;;;14.23;10.15;;;;;;;20.05;28.65;97806.91;10306988;28;20096;-64
2022/09/24 15:09:35;;;;;;;8.18;5.28;;;;;;;19.98;27.97;97799.31;10290943;28;20074;-64
2022/09/24 15:14:35;;;;;;;9.60;5.93;;;;;;;20.20;28.36;97826.53;10290435;28;20033;-64
2022/09/24 15:19:35;;;;;;;7.90;5.05;;;;;;;20.13;30.88;97830.31;10290527;28;20541;-64
2022/09/24 15:24:34;;;;;;;7.85;6.03;;;;;;;19.56;32.83;97757.88;10290067;28;20497;-64
2022/09/24 15:29:33;;;;;;;11.25;7.88;;;;;;;19.68;33.53;97817.09;10290206;28;20508;-64
2022/09/24 15:34:32;;;;;;;6.28;4.20;;;;;;;19.52;33.73;97835.19;10290815;28;20034;-64
2022/09/24 15:39:31;;;;;;;7.20;4.80;;;;;;;19.22;34.65;97825.69;10290931;28;20057;-64
2022/09/24 15:44:30;;;;;;;9.63;6.57;;;;;;;18.97;35.09;97840.56;10289406;28;20034;-64
2022/09/24 15:49:29;;;;;;;6.00;4.53;;;;;;;18.51;35.92;97816.63;10290937;28;20062;-64
2022/09/24 15:54:28;;;;;;;6.32;4.07;;;;;;;18.31;35.95;97838.25;10291228;28;20072;-64
2022/09/24 15:59:27;;;;;;;5.72;4.00;;;;;;;18.02;36.26;97843.56;10292562;28;20298;-64
2022/09/24 16:04:27;;;;;;;8.40;4.65;;;;;;;17.74;36.57;97842.53;10298299;28;20064;-64
2022/09/24 16:09:26;;;;;;;9.75;6.47;;;;;;;17.40;37.64;97845.22;10298789;28;20100;-65
2022/09/24 16:14:25;;;;;;;15.30;10.13;;;;;;;17.10;38.08;97849.53;10298353;28;20073;-64
2022/09/24 16:19:24;;;;;;;;;;;;;;;16.75;38.91;97856.50;10297729;28;20137;-64
2022/09/24 16:24:23;;;;;;;20.63;13.43;;;;;;;15.94;40.13;97803.34;10298099;28;19913;-63
2022/09/24 16:29:22;;;;;;;;;;;;;;;16.09;39.99;97853.63;10298146;28;20037;-63
2022/09/24 16:34:21;;;;;;;17.00;9.13;;;;;;;15.68;40.81;97833.50;10297782;28;20460;-64
2022/09/24 16:39:19;;;;;;;;;;;;;;;15.58;41.21;97866.84;10298822;28;20544;-64
2022/09/24 16:44:18;;;;;;;10.75;7.93;;;;;;;15.31;42.12;97862.13;10296450;28;20471;-64
2022/09/24 16:49:18;;;;;;;14.52;9.45;;;;;;;15.17;43.13;97881.53;10296730;28;20044;-62
2022/09/24 16:54:18;;;;;;;24.70;16.70;;;;;;;14.94;43.49;97891.50;10296797;28;20061;-62
2022/09/24 16:59:17;;;;;;;18.00;12.48;;;;;;;14.61;44.17;97884.13;10298121;28;20057;-62
2022/09/24 17:04:16;;;;;;;18.38;13.82;;;;;;;14.44;44.38;97895.72;10313098;28;20425;-62
2022/09/24 17:14:38;;;;;;;33.65;17.98;;;;;;;13.93;47.49;97899.84;10298567;28;20362;-62
2022/09/24 17:19:37;;;;;;;29.50;17.23;;;;;;;13.73;47.98;97915.75;10313739;28;20041;-62
2022/09/24 17:24:38;;;;;;;25.20;14.23;;;;;;;13.56;48.53;97926.38;10291716;28;20029;-62
2022/09/24 17:29:37;;;;;;;23.52;14.63;;;;;;;13.28;49.01;97915.31;10295617;28;20065;-62
2022/09/24 17:34:36;;;;;;;27.13;15.38;;;;;;;13.16;49.21;97933.63;10312101;28;20038;-63
2022/09/24 17:39:35;;;;;;;;;;;;;;;13.08;49.44;97940.66;10311403;28;20057;-63
2022/09/24 17:44:34;;;;;;;22.92;13.93;;;;;;;12.94;50.03;97948.59;10296466;28;19916;-63
2022/09/24 17:49:33;;;;;;;16.25;10.25;;;;;;;12.65;52.65;97949.66;10295533;28;20120;-63
2022/09/24 17:54:32;;;;;;;19.45;10.43;;;;;;;12.27;53.46;97929.00;10295708;28;20116;-64
2022/09/24 17:59:31;;;;;;;30.35;16.73;;;;;;;12.19;53.46;97929.03;10292704;28;20404;-64
2022/09/24 18:04:30;;;;;;;37.05;19.35;;;;;;;12.24;53.92;97953.28;10291385;28;20040;-64
2022/09/24 18:09:29;;;;;;;31.58;15.85;;;;;;;12.10;53.69;97955.09;10287200;28;20405;-64
2022/09/24 18:14:28;;;;;;;24.00;14.85;;;;;;;12.08;54.00;97967.22;10291779;28;20039;-63
2022/09/24 18:19:27;;;;;;;16.17;10.02;;;;;;;12.02;54.12;97970.75;10291577;28;20454;-64
2022/09/24 18:24:26;;;;;;;20.90;9.82;;;;;;;11.95;54.17;97971.63;10292674;28;20040;-64
2022/09/24 18:29:26;;;;;;;12.90;9.45;;;;;;;11.64;55.26;97944.81;10289609;28;20030;-63
2022/09/24 18:34:25;;;;;;;13.15;9.95;;;;;;;11.59;56.96;97977.75;10291347;28;20500;-62
2022/09/24 18:39:24;;;;;;;21.67;12.38;;;;;;;11.41;57.11;97983.88;10284834;28;20511;-62
2022/09/24 18:44:23;;;;;;;23.00;12.68;;;;;;;11.24;58.24;97983.84;10289892;28;20072;-62
2022/09/24 18:49:22;;;;;;;23.13;14.40;;;;;;;11.14;58.23;97988.19;10291222;28;20034;-63
2022/09/24 18:54:23;;;;;;;22.42;17.38;;;;;;;10.96;59.45;97970.88;10289497;28;20065;-64
2022/09/24 18:59:22;;;;;;;22.70;16.25;;;;;;;10.97;59.79;97982.97;10290226;28;20061;-63
2022/09/24 19:04:22;;;;;;;21.02;14.82;;;;;;;10.94;59.88;97985.59;10290608;28;20065;-63
2022/09/24 19:09:21;;;;;;;23.95;16.52;;;;;;;10.80;60.60;97974.28;10282773;28;20129;-64
2022/09/24 19:14:20;;;;;;;23.70;18.35;;;;;;;10.76;60.00;97983.78;10289922;28;20073;-64
2022/09/24 19:19:19;;;;;;;25.75;18.92;;;;;;;10.71;60.56;97985.50;10289901;28;20036;-63
2022/09/24 19:24:19;;;;;;;25.25;19.85;;;;;;;10.65;60.95;97982.03;10289511;28;20077;-64
2022/09/24 19:29:18;;;;;;;32.53;19.30;;;;;;;10.39;61.77;97951.69;10289069;28;20066;-64
2022/09/24 19:34:19;;;;;;;28.88;19.95;;;;;;;10.35;62.01;97949.94;10287678;28;20480;-63
2022/09/24 19:39:18;;;;;;;24.35;14.52;;;;;;;10.35;62.53;97975.88;10282735;28;20069;-64
2022/09/24 19:44:17;;;;;;;27.35;15.52;;;;;;;10.29;61.97;97981.91;10288822;28;20488;-63
2022/09/24 19:49:16;;;;;;;24.55;16.42;;;;;;;10.19;62.66;97982.72;10289085;28;20564;-63
2022/09/24 19:54:15;;;;;;;23.83;17.63;;;;;;;9.92;63.66;97945.47;10288411;28;20069;-63
2022/09/24 19:59:15;;;;;;;38.58;24.85;;;;;;;10.04;64.73;97991.31;10290816;28;20095;-63
2022/09/24 20:04:14;;;;;;;29.23;19.30;;;;;;;9.94;65.09;97977.44;10292118;28;20532;-64
2022/09/24 20:09:13;;;;;;;43.88;25.25;;;;;;;9.91;67.09;97989.50;10291298;28;20536;-63
2022/09/24 20:14:12;;;;;;;50.40;30.20;;;;;;;9.78;68.36;97986.00;10293641;28;20120;-64
2022/09/24 20:19:11;;;;;;;47.45;29.48;;;;;;;9.64;68.29;97995.41;10293044;28;20514;-62
2022/09/24 20:24:11;;;;;;;42.40;29.10;;;;;;;9.50;68.70;97996.16;10293476;28;20470;-62
2022/09/24 20:29:11;;;;;;;;;;;;;;;9.45;68.90;98010.81;10292677;28;20061;-62
2022/09/24 20:34:10;;;;;;;33.67;24.05;;;;;;;9.35;68.96;97994.34;10291781;28;19957;-62
2022/09/24 20:39:09;;;;;;;33.83;23.27;;;;;;;9.30;69.43;98001.22;10293228;28;20088;-62
2022/09/24 20:44:08;;;;;;;29.60;20.70;;;;;;;9.26;69.59;98008.91;10292867;28;20041;-62
2022/09/24 20:49:15;;;;;;;29.95;20.63;;;;;;;9.01;70.05;97987.97;10299539;28;20058;-62
2022/09/24 20:54:14;;;;;;;27.73;19.40;;;;;;;9.03;71.26;98011.31;10299819;28;20077;-62
2022/09/24 20:59:13;;;;;;;24.92;17.58;;;;;;;8.99;71.46;98012.97;10297999;28;20057;-62
2022/09/24 21:04:12;;;;;;;22.60;17.70;;;;;;;8.81;71.83;97995.56;10296091;28;20100;-62
2022/09/24 21:09:13;;;;;;;22.75;17.90;;;;;;;8.82;72.36;97997.28;10292485;28;20037;-62
2022/09/24 21:14:13;;;;;;;23.98;16.13;;;;;;;8.76;72.09;98020.50;10295875;28;20074;-62
2022/09/24 21:19:14;;;;;;;22.63;15.07;;;;;;;8.64;74.13;98020.38;10293989;28;20140;-62
2022/09/24 21:24:14;;;;;;;20.02;13.63;;;;;;;8.23;74.10;97985.44;10294704;28;20076;-62
2022/09/24 21:29:16;;;;;;;27.00;16.70;;;;;;;8.35;75.13;98033.84;10293632;28;20069;-62
2022/09/24 21:34:19;;;;;;;24.48;15.25;;;;;;;8.08;75.12;98022.31;10294887;28;20073;-62
2022/09/24 21:39:22;;;;;;;19.52;14.13;;;;;;;8.02;75.58;98009.31;10293268;28;20319;-63
2022/09/24 21:44:21;;;;;;;21.80;15.32;;;;;;;7.72;75.00;97976.19;10293223;28;20532;-63
2022/09/24 21:49:21;;;;;;;23.27;16.58;;;;;;;7.99;75.40;98011.88;10294285;28;20492;-63
2022/09/24 21:54:20;;;;;;;24.38;16.92;;;;;;;7.98;75.55;98004.09;10294016;28;20069;-62
2022/09/24 22:04:37;;;;;;;22.80;16.55;;;;;;;7.53;75.35;97953.53;10292164;28;20073;-62
2022/09/24 22:09:37;;;;;;;25.55;16.65;;;;;;;7.72;76.22;98002.00;10290154;28;20513;-62
2022/09/24 22:14:36;;;;;;;;;;;;;;;7.66;76.17;97996.75;10290618;28;20073;-62
2022/09/24 22:19:35;;;;;;;27.67;17.85;;;;;;;7.51;76.24;97981.91;10290233;28;19913;-62
2022/09/24 22:24:34;;;;;;;27.80;17.27;;;;;;;7.43;76.90;97968.03;10293440;28;20054;-62
2022/09/24 22:29:32;;;;;;;32.42;18.17;;;;;;;7.34;76.64;97960.09;10293409;28;20038;-62
2022/09/24 22:39:49;;;;;;;21.92;16.38;;;;;;;7.41;76.82;97983.47;10292945;28;20069;-62
2022/09/24 22:44:48;;;;;;;19.60;14.18;;;;;;;7.33;77.33;97991.91;10292256;28;20029;-62
2022/09/24 22:49:47;;;;;;;22.63;14.07;;;;;;;7.10;77.95;97969.22;10292540;28;20116;-62
2022/09/24 22:54:46;;;;;;;30.00;17.08;;;;;;;6.93;78.21;97940.53;10292237;28;20026;-62
2022/09/24 22:59:45;;;;;;;27.17;17.23;;;;;;;7.12;78.86;97988.13;10293992;28;20330;-62
2022/09/24 23:04:44;;;;;;;25.00;16.55;;;;;;;7.14;78.70;97986.47;10295670;28;20317;-62
2022/09/24 23:09:43;;;;;;;25.70;16.45;;;;;;;7.14;79.30;97993.34;10294968;28;20492;-63
2022/09/24 23:14:42;;;;;;;29.17;17.10;;;;;;;7.04;79.64;97989.75;10295117;28;20432;-63
2022/09/24 23:19:47;;;;;;;26.65;16.98;;;;;;;6.76;79.62;97960.03;10295048;28;20110;-63
2022/09/24 23:24:49;;;;;;;23.83;14.77;;;;;;;6.83;79.58;97974.75;10294994;28;20053;-63
2022/09/24 23:29:48;;;;;;;22.20;14.40;;;;;;;6.51;79.94;97935.50;10295269;28;20078;-63
2022/09/24 23:34:47;;;;;;;21.25;14.35;;;;;;;6.64;80.07;97989.03;10295328;28;20061;-63
2022/09/24 23:39:46;;;;;;;21.85;13.32;;;;;;;6.51;80.22;97963.88;10294785;28;20030;-63
2022/09/24 23:44:47;;;;;;;19.48;12.80;;;;;;;6.45;79.87;97961.19;10295011;28;20084;-63
2022/09/24 23:49:46;;;;;;;20.67;13.27;;;;;;;6.52;80.00;97973.34;10294552;28;20070;-63